ERV weather

Kerrville Municipal Louis Schreiner Field
Kerrville, Texas, United States

Public forecast

Using degrees Fahrenheit for public forecast. Weather courtesy of forecast.io.

Current aviation weather report (METAR) for Kerrville Municipal Louis Schreiner Field

Retrieved 2020/08/06 08:55 UTC (35 minutes ago):

KERV 060855Z AUTO 17008KT 10SM OVC012 25/22 A3003 RMK AO2 T02470220

Closest aviation forecast (TAF) to Kerrville Municipal Louis Schreiner Field

Closest forecast is San Antonio International Airport, 41.7 nm (77.2 km) SE. Retrieved 2020/08/06 06:24 UTC (3 hours ago):

TAF KSAT 060523Z 0606/0712 15010KT P6SM SKC FM060800 18007KT P6SM BKN011 FM061500 18009KT P6SM FEW035 FM062000 14012KT P6SM FEW050 FM070800 17007KT P6SM BKN011